createdAt,value
2018-03-20T00:00:31.526Z,6.60
2018-03-20T00:02:59.659Z,6.55
2018-03-20T00:05:27.823Z,7.72
2018-03-20T00:07:55.949Z,6.50
2018-03-20T00:10:24.108Z,6.80
2018-03-20T00:12:52.233Z,6.57
2018-03-20T00:15:20.392Z,6.32
2018-03-20T00:17:48.512Z,6.10
2018-03-20T00:20:16.660Z,6.85
2018-03-20T00:22:44.794Z,6.55
2018-03-20T00:25:12.953Z,7.00
2018-03-20T00:27:41.087Z,7.35
2018-03-20T00:30:09.244Z,7.87
2018-03-20T00:32:37.386Z,7.22
2018-03-20T00:35:05.554Z,7.18
2018-03-20T00:37:33.681Z,6.43
2018-03-20T00:40:01.849Z,6.20
2018-03-20T00:42:29.983Z,5.97
2018-03-20T00:44:58.109Z,6.70
2018-03-20T00:47:26.265Z,6.72
2018-03-20T00:49:54.397Z,6.25
2018-03-20T00:52:22.551Z,5.85
2018-03-20T00:54:50.682Z,7.10
2018-03-20T00:57:18.842Z,7.65
2018-03-20T00:59:46.982Z,7.50
2018-03-20T01:02:15.139Z,7.65
2018-03-20T01:04:43.270Z,7.22
2018-03-20T01:07:11.431Z,7.57
2018-03-20T01:09:39.564Z,7.32
2018-03-20T01:12:07.716Z,8.38
2018-03-20T01:14:35.850Z,6.40
2018-03-20T01:17:04.776Z,6.95
2018-03-20T01:19:32.904Z,7.57
2018-03-20T01:22:01.830Z,7.72
2018-03-20T01:24:29.957Z,9.02
2018-03-20T01:26:58.114Z,7.18
2018-03-20T01:29:26.237Z,5.60
2018-03-20T01:31:54.393Z,7.07
2018-03-20T01:34:22.530Z,7.70
2018-03-20T01:36:50.681Z,8.00
2018-03-20T01:39:18.800Z,8.10
2018-03-20T01:41:46.953Z,9.23
2018-03-20T01:44:15.110Z,8.18
2018-03-20T01:46:43.245Z,9.57
2018-03-20T01:49:12.162Z,8.95
2018-03-20T01:51:40.293Z,8.10
2018-03-20T01:54:08.444Z,7.87
2018-03-20T01:56:36.567Z,6.95
2018-03-20T01:59:04.726Z,8.50
2018-03-20T02:01:32.862Z,8.48
2018-03-20T02:04:01.013Z,9.55
2018-03-20T02:06:29.146Z,8.00
2018-03-20T02:08:57.297Z,8.45
2018-03-20T02:11:25.421Z,9.45
2018-03-20T02:13:53.578Z,8.60
2018-03-20T02:16:21.700Z,9.35
2018-03-20T02:21:25.669Z,8.68
2018-03-20T02:23:53.828Z,8.73
2018-03-20T02:26:22.732Z,9.20
2018-03-20T02:28:50.885Z,9.20
2018-03-20T02:31:19.018Z,9.88
2018-03-20T02:33:47.168Z,9.07
2018-03-20T02:36:15.298Z,8.95
2018-03-20T02:38:43.467Z,11.35
2018-03-20T02:41:11.592Z,10.98
2018-03-20T02:43:39.746Z,11.10
2018-03-20T02:46:08.322Z,10.18
2018-03-20T02:48:37.250Z,12.85
2018-03-20T02:51:05.393Z,10.93
2018-03-20T02:53:33.531Z,11.40
2018-03-20T02:56:01.697Z,12.57
2018-03-20T02:58:29.833Z,13.13
2018-03-20T03:00:57.991Z,10.90
2018-03-20T03:03:26.125Z,12.75
2018-03-20T03:05:54.282Z,12.98
2018-03-20T03:08:22.407Z,12.73
2018-03-20T03:10:50.556Z,13.80
2018-03-20T03:13:18.693Z,13.23
2018-03-20T03:15:46.849Z,14.13
2018-03-20T03:18:14.985Z,16.02
2018-03-20T03:20:43.142Z,14.07
2018-03-20T03:23:11.274Z,14.27
2018-03-20T03:25:39.426Z,12.68
2018-03-20T03:28:07.569Z,15.65
2018-03-20T03:30:35.722Z,16.00
2018-03-20T03:33:03.854Z,15.13
2018-03-20T03:35:32.013Z,14.25
2018-03-20T03:38:00.146Z,14.85
2018-03-20T03:40:28.311Z,16.10
2018-03-20T03:42:56.441Z,16.65
2018-03-20T03:45:24.604Z,15.38
2018-03-20T03:47:52.736Z,16.23
2018-03-20T03:50:20.892Z,18.48
2018-03-20T03:52:49.024Z,15.98
2018-03-20T03:55:17.948Z,15.88
2018-03-20T03:57:46.115Z,17.30
2018-03-20T04:00:14.246Z,17.08
2018-03-20T04:02:42.408Z,17.92
2018-03-20T04:05:10.546Z,17.77
2018-03-20T04:07:38.703Z,17.17
2018-03-20T04:10:06.837Z,18.95
2018-03-20T04:12:35.005Z,17.45
2018-03-20T04:15:03.144Z,16.95
2018-03-20T04:17:31.297Z,18.35
2018-03-20T04:19:59.430Z,16.50
2018-03-20T04:22:27.589Z,18.35
2018-03-20T04:24:55.721Z,20.33
2018-03-20T04:27:23.884Z,18.55
2018-03-20T04:29:52.013Z,20.58
2018-03-20T04:32:20.173Z,19.40
2018-03-20T04:34:48.309Z,23.40
2018-03-20T04:37:16.464Z,21.17
2018-03-20T04:39:45.368Z,22.92
2018-03-20T04:42:13.533Z,21.33
2018-03-20T04:44:41.670Z,21.25
2018-03-20T04:47:09.836Z,23.62
2018-03-20T04:49:37.965Z,22.87
2018-03-20T04:54:40.447Z,21.55
2018-03-20T04:57:08.610Z,24.20
2018-03-20T04:59:36.747Z,24.77
2018-03-20T05:02:04.925Z,26.02
2018-03-20T05:04:33.058Z,25.92
2018-03-20T05:07:01.189Z,23.85
2018-03-20T05:09:29.345Z,26.45
2018-03-20T05:11:57.478Z,24.35
2018-03-20T05:14:25.651Z,26.17
2018-03-20T05:16:53.790Z,24.48
2018-03-20T05:19:22.550Z,24.45
2018-03-20T05:24:51.773Z,33.63
2018-03-20T05:27:19.908Z,38.10
2018-03-20T05:29:48.064Z,35.15
2018-03-20T05:32:16.201Z,34.65
2018-03-20T05:34:44.358Z,35.22
2018-03-20T05:37:12.506Z,28.98
2018-03-20T05:39:40.656Z,32.40
2018-03-20T05:42:08.789Z,29.15
2018-03-20T05:44:36.945Z,26.87
2018-03-20T05:47:25.732Z,30.48
2018-03-20T05:49:59.430Z,29.60
2018-03-20T05:52:30.173Z,29.50
2018-03-20T05:54:59.105Z,31.12
2018-03-20T05:57:27.232Z,29.25
2018-03-20T05:59:56.163Z,27.60
2018-03-20T06:02:24.297Z,30.50
2018-03-20T06:04:52.456Z,27.27
2018-03-20T06:07:20.582Z,27.87
2018-03-20T06:09:48.734Z,24.87
2018-03-20T06:12:16.872Z,21.90
2018-03-20T06:14:45.021Z,19.60
2018-03-20T06:17:13.153Z,22.08
2018-03-20T06:19:41.312Z,23.05
2018-03-20T06:22:09.438Z,20.37
2018-03-20T06:24:37.620Z,19.05
2018-03-20T06:27:05.757Z,18.60
2018-03-20T06:29:33.932Z,18.90
2018-03-20T06:32:02.072Z,20.20
2018-03-20T06:34:30.229Z,17.87
2018-03-20T06:36:58.368Z,17.80
2018-03-20T06:39:26.537Z,14.80
2018-03-20T06:41:54.692Z,13.10
2018-03-20T06:44:22.827Z,14.45
2018-03-20T06:46:51.049Z,15.23
2018-03-20T06:49:19.193Z,13.38
2018-03-20T06:51:47.368Z,14.60
2018-03-20T06:54:15.502Z,14.15
2018-03-20T06:56:43.673Z,15.80
2018-03-20T06:59:11.812Z,14.55
2018-03-20T07:01:39.970Z,18.60
2018-03-20T07:04:08.096Z,27.95
2018-03-20T07:06:36.289Z,26.33
2018-03-20T07:09:04.421Z,16.15
2018-03-20T07:11:32.582Z,12.32
2018-03-20T07:14:00.723Z,14.27
2018-03-20T07:16:28.886Z,13.48
2018-03-20T07:18:57.023Z,15.25
2018-03-20T07:21:25.178Z,13.25
2018-03-20T07:23:53.315Z,14.13
2018-03-20T07:26:21.477Z,14.77
2018-03-20T07:28:49.609Z,15.00
2018-03-20T07:31:17.777Z,15.10
2018-03-20T07:33:45.915Z,14.65
2018-03-20T07:36:14.073Z,14.65
2018-03-20T07:38:42.205Z,15.07
2018-03-20T07:41:10.338Z,14.23
2018-03-20T07:43:38.523Z,15.18
2018-03-20T07:46:06.662Z,13.52
2018-03-20T07:48:34.847Z,14.05
2018-03-20T07:51:02.985Z,15.85
2018-03-20T07:53:31.142Z,13.27
2018-03-20T07:55:59.282Z,12.00
2018-03-20T07:58:28.206Z,13.15
2018-03-20T08:00:56.341Z,12.75
2018-03-20T08:03:24.501Z,10.40
2018-03-20T08:05:52.632Z,12.13
2018-03-20T08:08:20.792Z,10.82
2018-03-20T08:10:48.918Z,7.60
2018-03-20T08:13:17.070Z,9.90
2018-03-20T08:15:45.195Z,8.65
2018-03-20T08:18:14.104Z,8.65
2018-03-20T08:20:42.238Z,9.40
2018-03-20T08:23:10.393Z,7.60
2018-03-20T08:25:38.574Z,7.90
2018-03-20T08:28:06.722Z,7.75
2018-03-20T08:30:34.860Z,7.00
2018-03-20T08:33:03.013Z,6.55
2018-03-20T08:35:31.150Z,6.87
2018-03-20T08:37:59.314Z,6.30
2018-03-20T08:40:27.438Z,6.75
2018-03-20T08:42:55.590Z,6.07
2018-03-20T08:45:23.722Z,7.95
2018-03-20T08:47:51.901Z,7.25
2018-03-20T08:50:20.030Z,7.47
2018-03-20T08:52:48.151Z,6.95
2018-03-20T08:55:16.307Z,6.57
2018-03-20T08:57:44.434Z,6.45
2018-03-20T09:00:12.596Z,5.30
2018-03-20T09:02:40.721Z,4.70
2018-03-20T09:05:08.885Z,5.37
2018-03-20T09:07:37.052Z,5.30
2018-03-20T09:10:05.206Z,5.35
2018-03-20T09:12:33.348Z,4.03
2018-03-20T09:15:01.506Z,3.50
2018-03-20T09:17:29.681Z,3.87
2018-03-20T09:19:57.834Z,4.28
2018-03-20T09:22:25.973Z,3.67
2018-03-20T09:24:54.168Z,4.12
2018-03-20T09:27:23.063Z,3.87
2018-03-20T09:29:51.278Z,5.45
2018-03-20T09:32:19.381Z,9.10
2018-03-20T09:34:47.533Z,6.00
2018-03-20T09:37:15.658Z,4.70
2018-03-20T09:39:43.827Z,4.53
2018-03-20T09:42:12.724Z,5.30
2018-03-20T09:44:40.891Z,4.78
2018-03-20T09:47:09.787Z,4.47
2018-03-20T09:49:37.941Z,3.92
2018-03-20T09:52:06.061Z,5.30
2018-03-20T09:54:34.212Z,4.25
2018-03-20T09:57:02.337Z,4.18
2018-03-20T09:59:30.490Z,4.87
2018-03-20T10:01:58.610Z,5.72
2018-03-20T10:04:26.757Z,4.65
2018-03-20T10:06:54.878Z,4.35
2018-03-20T10:09:23.117Z,7.57
2018-03-20T10:11:51.265Z,6.40
2018-03-20T10:14:19.392Z,7.65
2018-03-20T10:16:47.547Z,5.00
2018-03-20T10:19:15.670Z,5.15
2018-03-20T10:21:43.818Z,4.25
2018-03-20T10:24:12.702Z,5.12
2018-03-20T10:26:40.850Z,4.45
2018-03-20T10:29:08.976Z,5.03
2018-03-20T10:31:37.123Z,4.93
2018-03-20T10:34:06.208Z,4.10
2018-03-20T10:36:34.350Z,4.87
2018-03-20T10:39:02.477Z,5.30
2018-03-20T10:41:30.650Z,4.37
2018-03-20T10:43:58.796Z,5.47
2018-03-20T10:46:26.945Z,4.28
2018-03-20T10:48:55.080Z,4.53
2018-03-20T10:51:23.227Z,3.90
2018-03-20T10:53:51.340Z,4.70
2018-03-20T10:56:19.527Z,4.07
2018-03-20T10:58:47.658Z,4.25
2018-03-20T11:01:21.369Z,4.50
2018-03-20T11:03:49.493Z,8.88
2018-03-20T11:06:17.638Z,4.68
2018-03-20T11:08:45.766Z,8.73
2018-03-20T11:11:14.681Z,5.32
2018-03-20T11:13:42.808Z,8.38
2018-03-20T11:16:10.958Z,7.80
2018-03-20T11:18:39.085Z,6.78
2018-03-20T11:21:07.255Z,3.47
2018-03-20T11:23:35.384Z,3.65
2018-03-20T11:26:03.533Z,4.32
2018-03-20T11:28:31.664Z,4.20
2018-03-20T11:30:59.829Z,4.50
2018-03-20T11:33:27.958Z,4.53
2018-03-20T11:35:56.095Z,4.00
2018-03-20T11:38:25.056Z,3.00
2018-03-20T11:40:53.198Z,3.37
2018-03-20T11:43:21.357Z,3.75
2018-03-20T11:45:49.487Z,3.47
2018-03-20T11:48:17.638Z,2.97
2018-03-20T11:50:45.761Z,2.80
2018-03-20T11:53:13.925Z,2.33
2018-03-20T11:55:42.090Z,8.77
2018-03-20T11:58:10.246Z,3.70
2018-03-20T12:00:38.375Z,9.38
2018-03-20T12:03:06.549Z,9.27
2018-03-20T12:05:34.697Z,7.90
2018-03-20T12:08:14.570Z,3.28
2018-03-20T12:10:42.689Z,2.95
2018-03-20T12:13:10.851Z,27.75
2018-03-20T12:15:38.979Z,3.58
2018-03-20T12:18:07.125Z,3.65
2018-03-20T12:20:36.017Z,2.50
2018-03-20T12:23:04.162Z,2.10
2018-03-20T12:25:32.285Z,2.33
2018-03-20T12:28:00.437Z,3.22
2018-03-20T12:30:28.571Z,1.77
2018-03-20T12:32:56.722Z,2.60
2018-03-20T12:35:24.841Z,6.70
2018-03-20T12:37:52.989Z,2.25
2018-03-20T12:40:21.133Z,1.60
2018-03-20T12:42:49.324Z,2.28
2018-03-20T12:45:17.445Z,2.00
2018-03-20T12:47:46.378Z,2.10
2018-03-20T12:50:14.529Z,1.77
2018-03-20T12:52:43.437Z,2.20
2018-03-20T12:55:11.591Z,1.70
2018-03-20T12:57:40.510Z,2.05
2018-03-20T13:00:08.655Z,2.00
2018-03-20T13:02:37.565Z,2.33
2018-03-20T13:05:05.716Z,1.95
2018-03-20T13:07:34.606Z,1.50
2018-03-20T13:10:02.758Z,3.15
2018-03-20T13:12:30.891Z,5.45
2018-03-20T13:14:59.086Z,13.60
2018-03-20T13:17:27.218Z,7.03
2018-03-20T13:19:55.387Z,7.60
2018-03-20T13:22:23.522Z,5.78
2018-03-20T13:24:51.673Z,3.17
2018-03-20T13:27:19.816Z,2.70
2018-03-20T13:29:47.963Z,1.70
2018-03-20T13:32:16.856Z,2.00
2018-03-20T13:34:45.021Z,1.70
2018-03-20T13:37:13.941Z,1.55
2018-03-20T13:39:42.078Z,1.75
2018-03-20T13:42:10.720Z,1.60
2018-03-20T13:44:38.931Z,1.92
2018-03-20T13:47:07.082Z,1.65
2018-03-20T13:49:35.245Z,1.50
2018-03-20T13:52:03.397Z,1.55
2018-03-20T13:54:31.520Z,1.30
2018-03-20T13:56:59.929Z,1.55
2018-03-20T13:59:28.085Z,1.48
2018-03-20T14:01:56.243Z,1.35
2018-03-20T14:04:24.385Z,1.80
2018-03-20T14:06:52.540Z,1.35
2018-03-20T14:09:20.677Z,2.00
2018-03-20T14:11:48.861Z,8.95
2018-03-20T14:14:17.790Z,25.80
2018-03-20T14:16:45.959Z,11.07
2018-03-20T14:19:14.088Z,3.33
2018-03-20T14:21:42.242Z,2.95
2018-03-20T14:24:10.372Z,1.30
2018-03-20T14:26:38.517Z,1.23
2018-03-20T14:29:06.674Z,1.50
2018-03-20T14:31:34.824Z,2.53
2018-03-20T14:34:02.944Z,2.28
2018-03-20T14:36:31.102Z,1.40
2018-03-20T14:39:00.013Z,1.25
2018-03-20T14:41:28.210Z,1.33
2018-03-20T14:43:56.385Z,1.12
2018-03-20T14:46:24.489Z,1.30
2018-03-20T14:48:52.639Z,1.33
2018-03-20T14:51:20.769Z,1.70
2018-03-20T14:53:49.681Z,1.00
2018-03-20T14:56:17.817Z,7.37
2018-03-20T14:58:45.969Z,3.25
2018-03-20T15:01:14.115Z,1.90
2018-03-20T15:03:42.262Z,1.20
2018-03-20T15:06:10.390Z,1.40
2018-03-20T15:08:38.536Z,1.90
2018-03-20T15:11:06.662Z,1.00
2018-03-20T15:13:34.841Z,1.10
2018-03-20T15:16:03.041Z,1.50
2018-03-20T15:18:31.933Z,0.90
2018-03-20T15:21:00.063Z,1.60
2018-03-20T15:23:28.208Z,1.50
2018-03-20T15:25:56.324Z,1.20
2018-03-20T15:28:24.482Z,6.68
2018-03-20T15:30:52.615Z,2.12
2018-03-20T15:33:20.794Z,4.05
2018-03-20T15:35:48.951Z,11.02
2018-03-20T15:38:17.101Z,6.45
2018-03-20T15:40:45.289Z,2.67
2018-03-20T15:43:14.290Z,1.80
2018-03-20T15:45:42.486Z,1.70
2018-03-20T15:48:10.658Z,2.55
2018-03-20T15:50:38.866Z,2.00
2018-03-20T15:53:07.062Z,2.22
2018-03-20T15:55:35.289Z,4.40
2018-03-20T15:58:03.468Z,2.25
2018-03-20T16:00:31.638Z,1.20
2018-03-20T16:02:59.880Z,1.20
2018-03-20T16:05:28.033Z,0.70
2018-03-20T16:07:56.229Z,1.20
2018-03-20T16:10:24.387Z,1.25
2018-03-20T16:12:52.573Z,0.80
2018-03-20T16:15:20.821Z,1.30
2018-03-20T16:17:49.066Z,1.30
2018-03-20T16:20:17.291Z,1.45
2018-03-20T16:22:45.480Z,1.10
2018-03-20T16:25:13.650Z,1.60
2018-03-20T16:27:42.615Z,1.30
2018-03-20T16:30:10.761Z,1.33
2018-03-20T16:32:39.035Z,1.35
2018-03-20T16:35:07.306Z,3.83
2018-03-20T16:37:35.535Z,2.17
2018-03-20T16:40:04.548Z,1.70
2018-03-20T16:42:32.800Z,1.83
2018-03-20T16:45:01.187Z,1.42
2018-03-20T16:47:29.464Z,1.95
2018-03-20T16:49:57.607Z,2.10
2018-03-20T16:52:25.857Z,3.70
2018-03-20T16:54:54.139Z,3.42
2018-03-20T16:57:22.289Z,3.85
2018-03-20T16:59:50.499Z,1.40
2018-03-20T17:02:19.457Z,4.43
2018-03-20T17:04:47.682Z,3.03
2018-03-20T17:07:15.848Z,1.80
2018-03-20T17:09:44.001Z,1.58
2018-03-20T17:12:12.174Z,2.25
2018-03-20T17:14:40.298Z,3.22
2018-03-20T17:17:09.236Z,4.35
2018-03-20T17:19:37.363Z,7.45
2018-03-20T17:22:06.273Z,8.55
2018-03-20T17:24:34.389Z,7.65
2018-03-20T17:27:02.546Z,7.07
2018-03-20T17:29:30.669Z,5.78
2018-03-20T17:31:58.837Z,4.75
2018-03-20T17:34:26.961Z,3.60
2018-03-20T17:36:55.180Z,2.80
2018-03-20T17:39:23.342Z,2.05
2018-03-20T17:41:51.557Z,1.90
2018-03-20T17:44:19.771Z,2.00
2018-03-20T17:46:48.292Z,2.10
2018-03-20T17:49:16.740Z,2.00
2018-03-20T17:51:44.944Z,1.80
2018-03-20T17:54:13.161Z,2.03
2018-03-20T17:56:41.414Z,1.90
2018-03-20T17:59:10.074Z,1.55
2018-03-20T18:01:38.372Z,1.60
2018-03-20T18:04:06.916Z,2.40
2018-03-20T18:06:35.847Z,1.70
2018-03-20T18:09:04.223Z,1.60
2018-03-20T18:11:32.550Z,1.50
2018-03-20T18:14:00.750Z,1.50
2018-03-20T18:16:28.878Z,1.90
2018-03-20T18:18:57.046Z,2.30
2018-03-20T18:21:25.173Z,2.42
2018-03-20T18:23:53.339Z,1.87
2018-03-20T18:26:21.658Z,1.20
2018-03-20T18:28:50.289Z,2.08
2018-03-20T18:31:19.143Z,1.55
2018-03-20T18:33:47.697Z,2.45
2018-03-20T18:36:17.160Z,1.30
2018-03-20T18:38:45.612Z,1.42
2018-03-20T18:41:13.814Z,2.15
2018-03-20T18:43:43.284Z,1.60
2018-03-20T18:46:11.744Z,0.93
2018-03-20T18:48:40.102Z,1.35
2018-03-20T18:51:09.891Z,1.30
2018-03-20T18:53:39.102Z,1.37
2018-03-20T18:56:07.339Z,2.17
2018-03-20T18:58:35.703Z,1.30
2018-03-20T19:01:04.308Z,2.00
2018-03-20T19:03:33.912Z,1.30
2018-03-20T19:06:02.200Z,2.20
2018-03-20T19:08:31.732Z,2.87
2018-03-20T19:11:00.268Z,2.90
2018-03-20T19:13:28.793Z,1.90
2018-03-20T19:15:57.090Z,2.85
2018-03-20T19:18:26.037Z,2.15
2018-03-20T19:20:54.203Z,3.22
2018-03-20T19:23:22.349Z,2.00
2018-03-20T19:25:50.532Z,1.70
2018-03-20T19:28:18.685Z,1.55
2018-03-20T19:30:47.039Z,1.42
2018-03-20T19:33:15.283Z,2.00
2018-03-20T19:35:44.127Z,2.72
2018-03-20T19:38:12.286Z,1.83
2018-03-20T19:40:40.487Z,2.28
2018-03-20T19:43:09.255Z,1.95
2018-03-20T19:45:37.636Z,1.90
2018-03-20T19:48:05.855Z,1.30
2018-03-20T19:50:34.019Z,1.30
2018-03-20T19:53:02.393Z,1.58
2018-03-20T19:55:30.793Z,1.48
2018-03-20T19:57:59.179Z,1.65
2018-03-20T20:00:27.378Z,1.10
2018-03-20T20:02:55.866Z,1.77
2018-03-20T20:05:25.709Z,1.50
2018-03-20T20:07:53.926Z,1.40
2018-03-20T20:10:22.107Z,1.90
2018-03-20T20:12:50.266Z,2.33
2018-03-20T20:15:18.426Z,8.55
2018-03-20T20:17:46.574Z,5.43
2018-03-20T20:20:15.240Z,4.80
2018-03-20T20:22:44.182Z,1.98
2018-03-20T20:25:12.525Z,7.57
2018-03-20T20:27:41.430Z,10.15
2018-03-20T20:30:09.612Z,10.45
2018-03-20T20:32:37.878Z,8.65
2018-03-20T20:35:06.030Z,7.50
2018-03-20T20:37:34.191Z,4.15
2018-03-20T20:40:02.358Z,3.00
2018-03-20T20:42:30.529Z,2.55
2018-03-20T20:44:58.681Z,2.25
2018-03-20T20:47:26.834Z,2.08
2018-03-20T20:49:54.988Z,1.87
2018-03-20T20:52:23.319Z,2.20
2018-03-20T20:54:51.527Z,2.20
2018-03-20T20:57:20.466Z,1.60
2018-03-20T20:59:50.155Z,2.30
2018-03-20T21:02:19.206Z,2.17
2018-03-20T21:04:47.463Z,2.25
2018-03-20T21:07:16.254Z,2.10
2018-03-20T21:09:44.439Z,1.70
2018-03-20T21:12:12.608Z,1.95
2018-03-20T21:14:41.430Z,2.45
2018-03-20T21:17:17.174Z,1.92
2018-03-20T21:19:48.602Z,2.00
2018-03-20T21:22:23.745Z,1.95
2018-03-20T21:24:52.007Z,2.55
2018-03-20T21:30:40.091Z,2.50
2018-03-20T21:33:08.346Z,2.17
2018-03-20T21:35:37.288Z,2.25
2018-03-20T21:38:05.429Z,3.03
2018-03-20T21:40:33.586Z,4.10
2018-03-20T21:43:01.730Z,2.58
2018-03-20T21:45:29.930Z,3.05
2018-03-20T21:47:58.066Z,2.67
2018-03-20T21:50:26.247Z,3.10
2018-03-20T21:52:54.383Z,3.45
2018-03-20T21:55:22.539Z,3.28
2018-03-20T21:57:50.733Z,3.10
2018-03-20T22:00:19.661Z,3.45
2018-03-20T22:02:47.798Z,2.92
2018-03-20T22:05:16.845Z,3.30
2018-03-20T22:07:44.984Z,3.60
2018-03-20T22:10:13.139Z,3.33
2018-03-20T22:12:41.270Z,3.87
2018-03-20T22:15:09.422Z,3.20
2018-03-20T22:17:37.551Z,4.05
2018-03-20T22:20:05.707Z,3.30
2018-03-20T22:22:33.838Z,3.65
2018-03-20T22:25:02.044Z,3.72
2018-03-20T22:27:30.178Z,3.30
2018-03-20T22:29:58.349Z,4.28
2018-03-20T22:32:26.485Z,3.33
2018-03-20T22:34:54.643Z,3.30
2018-03-20T22:37:22.796Z,4.15
2018-03-20T22:39:50.958Z,4.32
2018-03-20T22:42:19.084Z,3.70
2018-03-20T22:44:47.237Z,4.10
2018-03-20T22:47:15.418Z,3.80
2018-03-20T22:49:43.571Z,3.78
2018-03-20T22:52:11.722Z,3.62
2018-03-20T22:54:39.882Z,4.40
2018-03-20T22:57:08.009Z,4.43
2018-03-20T22:59:36.161Z,3.72
2018-03-20T23:02:04.289Z,4.10
2018-03-20T23:04:33.215Z,3.62
2018-03-20T23:07:01.337Z,3.50
2018-03-20T23:09:29.493Z,3.33
2018-03-20T23:11:57.630Z,3.60
2018-03-20T23:14:25.786Z,4.15
2018-03-20T23:16:53.917Z,4.47
2018-03-20T23:19:22.065Z,4.00
2018-03-20T23:21:50.201Z,4.60
2018-03-20T23:24:18.349Z,3.42
2018-03-20T23:26:46.482Z,3.35
2018-03-20T23:29:14.637Z,3.62
2018-03-20T23:31:42.761Z,3.62
2018-03-20T23:34:10.934Z,4.30
2018-03-20T23:36:39.060Z,3.50
2018-03-20T23:39:07.197Z,4.22
2018-03-20T23:41:36.123Z,3.60
2018-03-20T23:44:04.259Z,3.40
2018-03-20T23:46:32.411Z,4.60
2018-03-20T23:49:00.538Z,3.37
2018-03-20T23:51:28.697Z,4.05
2018-03-20T23:53:56.830Z,3.55
2018-03-20T23:56:24.989Z,3.97
2018-03-20T23:58:53.118Z,3.50
